Time;durP1;ratioP1;P1;durP2;ratioP2;P2;SDS_P1;SDS_P2;PMS_P1;PMS_P2;Temp;Humidity;BMP_temperature;BMP_pressure;BME280_temperature;BME280_humidity;BME280_pressure;Samples;Min_cycle;Max_cycle;Signal;HPM_P1;HPM_P2
2022/10/25 00:01:48;;;;;;;;;;;13.80;99.90;;;;;;4955592;29;19913;-78
2022/10/25 00:04:14;;;;;;;;;;;13.70;99.90;;;;;;4955513;29;19907;-78
2022/10/25 00:06:40;;;;;;;;;;;13.80;99.90;;;;;;4955317;29;19911;-77
2022/10/25 00:09:05;;;;;;;;;;;13.80;99.90;;;;;;4955224;29;19966;-78
2022/10/25 00:11:31;;;;;;;;;;;13.80;99.90;;;;;;4955098;29;20017;-79
2022/10/25 00:13:57;;;;;;;;;;;13.80;99.90;;;;;;4955167;29;19906;-78
2022/10/25 00:16:26;;;;;;;;;;;13.90;99.90;;;;;;4955365;29;19913;-78
2022/10/25 00:18:52;;;;;;;;;;;13.90;99.90;;;;;;4955130;29;19910;-77
2022/10/25 00:21:17;;;;;;;;;;;13.80;99.90;;;;;;4954857;29;19921;-77
2022/10/25 00:23:43;;;;;;;;;;;13.90;99.90;;;;;;4954889;29;20025;-78
2022/10/25 00:26:09;;;;;;;;;;;13.80;99.90;;;;;;4955812;28;19929;-78
2022/10/25 00:28:35;;;;;;;;;;;13.80;99.90;;;;;;4958859;29;19914;-77
2022/10/25 00:31:02;;;;;;;;;;;13.80;99.90;;;;;;4958737;29;19912;-77
2022/10/25 00:33:29;;;;;;;;;;;13.80;99.90;;;;;;4958683;29;19957;-78
2022/10/25 00:35:54;;;;;;;;;;;13.80;99.90;;;;;;4959217;29;20268;-79
2022/10/25 00:38:20;;;;;;;;;;;13.90;99.90;;;;;;4958617;29;19906;-79
2022/10/25 00:40:45;;;;;;;;;;;13.80;99.90;;;;;;4958623;29;19912;-78
2022/10/25 00:43:28;;;;;;;;;;;13.80;99.90;;;;;;4941336;29;19910;-78
2022/10/25 00:45:53;;;;;;;;;;;13.90;99.90;;;;;;4958741;29;19997;-78
2022/10/25 00:48:19;;;;;;;;;;;13.90;99.90;;;;;;4958486;29;20412;-78
2022/10/25 00:50:50;;;;;;;;;;;13.80;99.90;;;;;;4958424;29;19907;-79
2022/10/25 00:53:17;;;;;;;;;;;13.80;99.90;;;;;;4958327;29;20398;-78
2022/10/25 00:55:45;;;;;;;;;;;13.80;99.90;;;;;;4958835;29;19929;-77
2022/10/25 00:58:13;;;;;;;;;;;13.90;99.90;;;;;;4958274;29;19906;-77
2022/10/25 01:00:38;;;;;;;;;;;14.00;99.90;;;;;;4958281;29;19906;-77
2022/10/25 01:03:04;;;;;;;;;;;14.10;99.90;;;;;;4957492;29;20012;-78
2022/10/25 01:05:30;;;;;;;;;;;14.20;99.90;;;;;;4958070;29;19907;-77
2022/10/25 01:07:55;;;;;;;;;;;14.40;99.90;;;;;;4958081;29;19906;-78
2022/10/25 01:10:21;;;;;;;;;;;14.40;99.90;;;;;;4958075;29;20400;-78
2022/10/25 01:12:47;;;;;;;;;;;14.30;99.90;;;;;;4957952;29;19932;-78
2022/10/25 01:15:12;;;;;;;;;;;14.30;99.90;;;;;;4957936;29;19907;-79
2022/10/25 01:17:48;;;;;;;;;;;14.40;99.90;;;;;;4957930;29;19912;-77
2022/10/25 01:20:23;;;;;;;;;;;14.30;99.90;;;;;;4940329;29;19989;-78
2022/10/25 01:22:52;;;;;;;;;;;14.40;99.90;;;;;;4957829;29;19906;-78
2022/10/25 01:25:17;;;;;;;;;;;14.40;99.90;;;;;;4922467;29;19965;-78
2022/10/25 01:27:45;;;;;;;;;;;14.40;99.90;;;;;;4938479;29;19957;-79
2022/10/25 01:30:13;;;;;;;;;;;14.30;99.90;;;;;;4938661;29;19911;-77
2022/10/25 01:32:51;;;;;;;;;;;14.40;99.90;;;;;;4938464;29;19917;-78
2022/10/25 01:35:28;;;;;;;;;;;14.50;99.90;;;;;;4938487;29;19907;-78
2022/10/25 01:37:59;;;;;;;;;;;14.50;99.90;;;;;;4937864;29;19950;-77
2022/10/25 01:40:36;;;;;;;;;;;14.60;99.90;;;;;;4938409;29;19907;-78
2022/10/25 01:43:20;;;;;;;;;;;14.60;99.90;;;;;;4938543;29;19913;-79
2022/10/25 01:45:52;;;;;;;;;;;14.60;99.90;;;;;;4938388;29;19913;-77
2022/10/25 01:48:22;;;;;;;;;;;14.50;99.90;;;;;;4938352;29;19906;-78
2022/10/25 01:50:48;;;;;;;;;;;14.70;99.90;;;;;;4938286;29;19929;-78
2022/10/25 01:53:14;;;;;;;;;;;14.70;99.90;;;;;;4938101;29;20364;-78
2022/10/25 01:55:45;;;;;;;;;;;14.70;99.90;;;;;;4938593;29;19989;-78
2022/10/25 01:58:17;;;;;;;;;;;14.80;99.90;;;;;;4938044;29;19915;-77
2022/10/25 02:00:54;;;;;;;;;;;14.80;99.90;;;;;;4938009;29;19929;-78
2022/10/25 02:03:28;;;;;;;;;;;14.80;99.90;;;;;;4938379;29;19906;-78
2022/10/25 02:06:08;;;;;;;;;;;14.90;99.90;;;;;;4937911;29;20349;-78
2022/10/25 02:08:33;;;;;;;;;;;14.90;99.90;;;;;;4938042;29;20396;-78
2022/10/25 02:10:59;;;;;;;;;;;14.90;99.90;;;;;;4937730;29;19907;-78
2022/10/25 02:13:32;;;;;;;;;;;14.90;99.90;;;;;;4937872;29;19911;-77
2022/10/25 02:16:00;;;;;;;;;;;14.90;99.90;;;;;;4937969;29;19907;-78
2022/10/25 02:18:28;;;;;;;;;;;14.90;99.90;;;;;;4920587;29;19962;-77
2022/10/25 02:20:55;;;;;;;;;;;14.90;99.90;;;;;;4937577;29;19914;-77
2022/10/25 02:23:21;;;;;;;;;;;14.90;99.90;;;;;;4939855;29;19978;-78
2022/10/25 02:25:47;;;;;;;;;;;14.90;99.90;;;;;;4956455;29;20369;-78
2022/10/25 02:28:14;;;;;;;;;;;14.90;99.90;;;;;;4956642;29;19913;-77
2022/10/25 02:30:41;;;;;;;;;;;14.90;99.90;;;;;;4956514;29;20361;-79
2022/10/25 02:33:07;;;;;;;;;;;15.00;99.90;;;;;;4956512;29;19910;-77
2022/10/25 02:35:32;;;;;;;;;;;14.90;99.90;;;;;;4956525;29;20395;-77
2022/10/25 02:37:58;;;;;;;;;;;14.90;99.90;;;;;;4956522;29;19907;-77
2022/10/25 02:40:24;;;;;;;;;;;14.90;99.90;;;;;;4956450;29;20432;-78
2022/10/25 02:42:49;;;;;;;;;;;14.90;99.90;;;;;;4956362;29;19906;-78
2022/10/25 02:45:15;;;;;;;;;;;14.90;99.90;;;;;;4956300;29;19993;-79
2022/10/25 02:47:40;;;;;;;;;;;14.80;99.90;;;;;;4956266;29;19933;-77
2022/10/25 02:50:06;;;;;;;;;;;14.90;99.90;;;;;;4955414;28;19992;-79
2022/10/25 02:52:32;;;;;;;;;;;14.90;99.90;;;;;;4956088;29;20012;-77
2022/10/25 02:54:57;;;;;;;;;;;15.00;99.90;;;;;;4956136;29;19906;-77
2022/10/25 02:57:23;;;;;;;;;;;14.90;99.90;;;;;;4956698;29;19960;-78
2022/10/25 02:59:50;;;;;;;;;;;14.90;99.90;;;;;;4936967;29;19930;-77
2022/10/25 03:02:15;;;;;;;;;;;14.90;99.90;;;;;;4937121;29;19906;-78
2022/10/25 03:04:41;;;;;;;;;;;14.80;99.90;;;;;;4936814;29;19997;-78
2022/10/25 03:07:06;;;;;;;;;;;14.70;99.90;;;;;;4936814;29;19907;-78
2022/10/25 03:09:32;;;;;;;;;;;14.60;99.90;;;;;;4936749;29;20317;-78
2022/10/25 03:11:57;;;;;;;;;;;14.60;99.90;;;;;;4936702;29;19911;-78
2022/10/25 03:14:24;;;;;;;;;;;14.80;99.90;;;;;;4936731;29;20293;-79
2022/10/25 03:16:49;;;;;;;;;;;14.70;99.90;;;;;;4936663;29;19906;-77
2022/10/25 03:19:15;;;;;;;;;;;14.60;99.90;;;;;;4936641;29;19914;-78
2022/10/25 03:21:41;;;;;;;;;;;14.50;99.90;;;;;;4936761;29;19966;-78
2022/10/25 03:24:06;;;;;;;;;;;14.40;99.90;;;;;;4936478;29;19942;-77
2022/10/25 03:26:32;;;;;;;;;;;14.30;99.90;;;;;;4936457;29;19911;-77
2022/10/25 03:28:57;;;;;;;;;;;14.40;99.90;;;;;;4936515;29;20277;-78
2022/10/25 03:31:24;;;;;;;;;;;14.40;99.90;;;;;;4936325;29;19907;-78
2022/10/25 03:33:50;;;;;;;;;;;14.40;99.90;;;;;;4936416;29;19906;-78
2022/10/25 03:36:15;;;;;;;;;;;14.50;99.90;;;;;;4936651;29;19913;-77
2022/10/25 03:38:41;;;;;;;;;;;14.50;99.90;;;;;;4936403;29;19911;-77
2022/10/25 03:41:06;;;;;;;;;;;14.50;99.90;;;;;;4919284;29;19997;-77
2022/10/25 03:43:32;;;;;;;;;;;14.50;99.90;;;;;;4936282;29;20104;-78
2022/10/25 03:45:58;;;;;;;;;;;14.60;99.90;;;;;;4936304;29;19907;-78
2022/10/25 03:48:23;;;;;;;;;;;14.50;99.90;;;;;;4936393;29;20341;-77
2022/10/25 03:50:49;;;;;;;;;;;14.40;99.90;;;;;;4936231;29;19907;-77
2022/10/25 03:53:14;;;;;;;;;;;14.40;99.90;;;;;;4936087;29;19911;-77
2022/10/25 03:55:40;;;;;;;;;;;14.40;99.90;;;;;;4937098;29;19895;-77
2022/10/25 03:58:05;;;;;;;;;;;14.30;99.90;;;;;;4936475;29;19993;-77
2022/10/25 04:00:31;;;;;;;;;;;14.40;99.90;;;;;;4937415;29;20286;-78
2022/10/25 04:02:57;;;;;;;;;;;14.50;99.90;;;;;;4940030;29;19907;-78
2022/10/25 04:05:23;;;;;;;;;;;14.50;99.90;;;;;;4940032;29;19956;-78
2022/10/25 04:07:49;;;;;;;;;;;14.50;99.90;;;;;;4939989;29;19978;-78
2022/10/25 04:10:15;;;;;;;;;;;14.50;99.90;;;;;;4939951;29;20281;-78
2022/10/25 04:12:41;;;;;;;;;;;14.50;99.90;;;;;;4939860;29;19911;-78
2022/10/25 04:15:06;;;;;;;;;;;14.60;99.90;;;;;;4939822;29;19906;-77
2022/10/25 04:17:32;;;;;;;;;;;14.60;99.90;;;;;;4940001;29;19907;-78
2022/10/25 04:19:58;;;;;;;;;;;14.60;99.90;;;;;;4939664;29;19907;-78
2022/10/25 04:22:23;;;;;;;;;;;14.70;99.90;;;;;;4939645;29;19906;-77
2022/10/25 04:24:49;;;;;;;;;;;14.70;99.90;;;;;;4939316;29;19966;-78
2022/10/25 04:27:14;;;;;;;;;;;14.70;99.90;;;;;;4939785;29;19910;-77
2022/10/25 04:29:40;;;;;;;;;;;14.80;99.90;;;;;;4939769;29;19907;-78
2022/10/25 04:32:06;;;;;;;;;;;14.80;99.90;;;;;;4939540;29;20373;-79
2022/10/25 04:34:31;;;;;;;;;;;14.90;99.90;;;;;;4939531;29;19911;-77
2022/10/25 04:36:57;;;;;;;;;;;14.80;99.90;;;;;;4939903;29;19929;-78
2022/10/25 04:39:24;;;;;;;;;;;14.60;99.90;;;;;;4939429;29;19946;-77
2022/10/25 04:41:50;;;;;;;;;;;14.60;99.90;;;;;;4939470;29;19913;-77
2022/10/25 04:44:16;;;;;;;;;;;14.70;99.90;;;;;;4939310;29;19942;-77
2022/10/25 04:46:41;;;;;;;;;;;14.70;99.90;;;;;;4939440;29;19953;-78
2022/10/25 04:49:08;;;;;;;;;;;14.70;99.90;;;;;;4939533;29;19907;-78
2022/10/25 04:51:34;;;;;;;;;;;14.70;99.90;;;;;;4939156;29;19906;-77
2022/10/25 04:54:00;;;;;;;;;;;14.70;99.90;;;;;;4922236;29;20396;-79
2022/10/25 04:56:27;;;;;;;;;;;14.70;99.90;;;;;;4939655;29;19906;-77
2022/10/25 04:58:52;;;;;;;;;;;14.70;99.90;;;;;;4939277;29;19993;-78
2022/10/25 05:01:18;;;;;;;;;;;14.60;99.90;;;;;;4939035;29;19953;-78
2022/10/25 05:03:43;;;;;;;;;;;14.60;99.90;;;;;;4938957;29;20289;-77
2022/10/25 05:06:27;;;;;;;;;;;14.70;99.90;;;;;;4939078;29;19907;-78
2022/10/25 05:08:53;;;;;;;;;;;14.70;99.90;;;;;;4939023;29;19910;-78
2022/10/25 05:11:20;;;;;;;;;;;14.60;99.90;;;;;;4938689;29;20285;-77
2022/10/25 05:13:46;;;;;;;;;;;14.60;99.90;;;;;;4938344;29;19910;-78
2022/10/25 05:16:15;;;;;;;;;;;14.50;99.90;;;;;;4938801;29;19918;-77
2022/10/25 05:18:41;;;;;;;;;;;14.50;99.90;;;;;;4938765;29;19917;-78
2022/10/25 05:21:08;;;;;;;;;;;14.50;99.90;;;;;;4938621;29;19907;-79
2022/10/25 05:23:33;;;;;;;;;;;14.60;99.90;;;;;;4938481;29;20399;-78
2022/10/25 05:26:00;;;;;;;;;;;14.60;99.90;;;;;;4939089;29;19907;-77
2022/10/25 05:28:26;;;;;;;;;;;14.50;99.90;;;;;;4938504;29;19907;-79
2022/10/25 05:30:51;;;;;;;;;;;14.50;99.90;;;;;;4938557;29;20017;-77
2022/10/25 05:33:17;;;;;;;;;;;14.50;99.90;;;;;;4938835;29;19917;-77
2022/10/25 05:35:42;;;;;;;;;;;14.50;99.90;;;;;;4938730;29;19906;-78
2022/10/25 05:38:08;;;;;;;;;;;14.60;99.90;;;;;;4938444;29;19910;-78
2022/10/25 05:40:33;;;;;;;;;;;14.60;99.90;;;;;;4938759;29;19907;-79
2022/10/25 05:42:59;;;;;;;;;;;14.60;99.90;;;;;;4938367;29;19907;-77
2022/10/25 05:45:24;;;;;;;;;;;14.60;99.90;;;;;;4938392;29;20365;-78
2022/10/25 05:47:50;;;;;;;;;;;14.60;99.90;;;;;;4938380;29;19907;-77
2022/10/25 05:50:16;;;;;;;;;;;14.60;99.90;;;;;;4938258;29;19914;-77
2022/10/25 05:52:42;;;;;;;;;;;14.60;99.90;;;;;;4938305;29;19915;-78
2022/10/25 05:55:07;;;;;;;;;;;14.60;99.90;;;;;;4938116;29;19958;-78
2022/10/25 05:57:33;;;;;;;;;;;14.60;99.90;;;;;;4938557;29;19906;-78
2022/10/25 05:59:59;;;;;;;;;;;14.60;99.90;;;;;;4923680;29;20002;-77
2022/10/25 06:02:24;;;;;;;;;;;14.50;99.90;;;;;;4905184;29;19975;-78
2022/10/25 06:04:50;;;;;;;;;;;14.50;99.90;;;;;;4915141;29;19908;-78
2022/10/25 06:07:15;;;;;;;;;;;14.60;99.90;;;;;;4917573;29;19908;-78
2022/10/25 06:09:41;;;;;;;;;;;14.60;99.90;;;;;;4912304;29;19911;-76
2022/10/25 06:12:07;;;;;;;;;;;14.70;99.90;;;;;;4899766;29;20266;-79
2022/10/25 06:14:32;;;;;;;;;;;14.70;99.90;;;;;;4899896;29;20028;-78
2022/10/25 06:16:58;;;;;;;;;;;14.70;99.90;;;;;;4882950;29;19907;-77
2022/10/25 06:19:23;;;;;;;;;;;14.60;99.90;;;;;;4899790;29;19907;-78
2022/10/25 06:21:49;;;;;;;;;;;14.60;99.90;;;;;;4899573;29;19914;-77
2022/10/25 06:24:15;;;;;;;;;;;14.70;99.90;;;;;;4908761;29;19961;-77
2022/10/25 06:26:40;;;;;;;;;;;14.60;99.90;;;;;;4918571;29;19911;-79
2022/10/25 06:29:06;;;;;;;;;;;14.60;99.90;;;;;;4918399;29;19980;-78
2022/10/25 06:31:32;;;;;;;;;;;14.70;99.90;;;;;;4918521;29;19907;-78
2022/10/25 06:33:59;;;;;;;;;;;14.60;99.90;;;;;;4918419;29;19950;-80
2022/10/25 06:36:26;;;;;;;;;;;14.60;99.90;;;;;;4918317;29;19958;-78
2022/10/25 06:38:52;;;;;;;;;;;14.60;99.90;;;;;;4918241;29;19918;-77
2022/10/25 06:41:19;;;;;;;;;;;14.60;99.90;;;;;;4918820;29;19907;-78
2022/10/25 06:43:44;;;;;;;;;;;14.60;99.90;;;;;;4918281;29;19974;-77
2022/10/25 06:46:21;;;;;;;;;;;14.60;99.90;;;;;;4918184;29;20361;-78
2022/10/25 06:48:47;;;;;;;;;;;14.60;99.90;;;;;;4918138;29;19907;-78
2022/10/25 06:51:13;;;;;;;;;;;14.60;99.90;;;;;;4920404;29;19918;-79
2022/10/25 06:53:39;;;;;;;;;;;14.60;99.90;;;;;;4926755;29;20415;-78
2022/10/25 06:56:06;;;;;;;;;;;14.60;99.90;;;;;;4937874;29;19914;-79
2022/10/25 06:58:33;;;;;;;;;;;14.70;99.90;;;;;;4937332;29;19910;-78
2022/10/25 07:01:01;;;;;;;;;;;14.70;99.90;;;;;;4935761;29;19906;-75
2022/10/25 07:03:30;;;;;;;;;;;14.70;99.90;;;;;;4935496;29;20013;-78
2022/10/25 07:05:59;;;;;;;;;;;14.60;99.90;;;;;;4936239;29;19914;-77
2022/10/25 07:08:25;;;;;;;;;;;14.70;99.90;;;;;;4936243;29;19906;-78
2022/10/25 07:10:54;;;;;;;;;;;14.80;99.90;;;;;;4936225;29;19907;-78
2022/10/25 07:13:19;;;;;;;;;;;14.80;99.90;;;;;;4935995;29;19918;-78
2022/10/25 07:15:45;;;;;;;;;;;14.80;99.90;;;;;;4936248;29;19906;-78
2022/10/25 07:18:10;;;;;;;;;;;14.80;99.90;;;;;;4936624;29;19906;-78
2022/10/25 07:20:36;;;;;;;;;;;14.90;99.90;;;;;;4936494;29;20021;-79
2022/10/25 07:23:02;;;;;;;;;;;14.90;99.90;;;;;;4936577;29;19913;-78
2022/10/25 07:25:27;;;;;;;;;;;15.00;99.90;;;;;;4936364;29;19918;-78
2022/10/25 07:27:53;;;;;;;;;;;14.90;99.90;;;;;;4919401;29;19913;-78
2022/10/25 07:30:19;;;;;;;;;;;14.90;99.90;;;;;;4935361;29;19911;-77
2022/10/25 07:32:44;;;;;;;;;;;15.00;99.90;;;;;;4932157;29;19946;-78
2022/10/25 07:35:10;;;;;;;;;;;15.00;99.90;;;;;;4936447;29;19907;-78
2022/10/25 07:37:36;;;;;;;;;;;15.00;99.90;;;;;;4936612;29;19989;-78
2022/10/25 07:40:01;;;;;;;;;;;14.90;99.90;;;;;;4935891;29;19910;-78
2022/10/25 07:42:27;;;;;;;;;;;14.90;99.90;;;;;;4936330;29;19910;-78
2022/10/25 07:44:53;;;;;;;;;;;14.80;99.90;;;;;;4935910;29;20362;-78
2022/10/25 07:47:18;;;;;;;;;;;14.80;99.90;;;;;;4935058;29;19930;-77
2022/10/25 07:49:44;;;;;;;;;;;14.80;99.90;;;;;;4936378;29;19907;-78
2022/10/25 07:52:10;;;;;;;;;;;14.80;99.90;;;;;;4936184;29;20384;-78
2022/10/25 07:54:35;;;;;;;;;;;14.90;99.90;;;;;;4936561;29;19913;-78
2022/10/25 07:57:01;;;;;;;;;;;14.90;99.90;;;;;;4936648;29;20436;-78
2022/10/25 07:59:27;;;;;;;;;;;14.80;99.90;;;;;;4936141;29;19950;-78
2022/10/25 08:01:52;;;;;;;;;;;14.80;99.90;;;;;;4936352;29;19906;-77
2022/10/25 08:04:18;;;;;;;;;;;15.00;99.90;;;;;;4936406;29;20441;-77
2022/10/25 08:06:43;;;;;;;;;;;15.10;99.90;;;;;;4936062;29;19945;-77
2022/10/25 08:09:09;;;;;;;;;;;15.20;99.90;;;;;;4936190;29;19958;-78
2022/10/25 08:11:34;;;;;;;;;;;15.30;99.90;;;;;;4936225;29;19913;-78
2022/10/25 08:14:00;;;;;;;;;;;15.40;99.90;;;;;;4936262;29;19949;-77
2022/10/25 08:16:26;;;;;;;;;;;15.60;99.90;;;;;;4936224;29;19941;-78
2022/10/25 08:18:51;;;;;;;;;;;15.70;99.90;;;;;;4935993;29;20408;-78
2022/10/25 08:21:17;;;;;;;;;;;15.90;99.90;;;;;;4935931;29;19907;-78
2022/10/25 08:23:42;;;;;;;;;;;16.10;99.90;;;;;;4935876;29;19919;-78
2022/10/25 08:26:08;;;;;;;;;;;16.30;99.90;;;;;;4935978;29;20336;-79
2022/10/25 08:28:34;;;;;;;;;;;16.60;99.90;;;;;;4936024;29;20035;-79
2022/10/25 08:30:59;;;;;;;;;;;17.30;99.90;;;;;;4935930;29;19914;-79
2022/10/25 08:33:25;;;;;;;;;;;17.60;99.90;;;;;;4935821;29;20017;-78
2022/10/25 08:35:50;;;;;;;;;;;17.40;99.90;;;;;;4935845;29;19914;-78
2022/10/25 08:38:16;;;;;;;;;;;17.70;99.90;;;;;;4936234;29;20392;-79
2022/10/25 08:40:48;;;;;;;;;;;17.70;99.90;;;;;;4935858;29;19911;-79
2022/10/25 08:43:14;;;;;;;;;;;17.80;99.90;;;;;;4936037;29;19954;-78
2022/10/25 08:46:09;;;;;;;;;;;17.70;99.90;;;;;;4935770;29;19907;-79
2022/10/25 08:48:40;;;;;;;;;;;17.70;99.90;;;;;;4917933;29;19906;-77
2022/10/25 08:51:17;;;;;;;;;;;18.10;99.90;;;;;;4939437;29;19910;-78
2022/10/25 08:53:47;;;;;;;;;;;18.30;99.90;;;;;;4939441;29;19962;-78
2022/10/25 08:56:15;;;;;;;;;;;18.90;99.90;;;;;;4939748;29;20369;-78
2022/10/25 08:58:53;;;;;;;;;;;19.20;99.90;;;;;;4937933;29;20280;-79
2022/10/25 09:01:25;;;;;;;;;;;19.40;99.90;;;;;;4939349;29;19913;-78
2022/10/25 09:03:51;;;;;;;;;;;19.20;99.90;;;;;;4939264;29;20436;-79
2022/10/25 09:06:19;;;;;;;;;;;21.30;99.90;;;;;;4939148;29;19956;-79
2022/10/25 09:09:15;;;;;;;;;;;21.80;99.90;;;;;;4939025;29;19906;-79
2022/10/25 09:11:46;;;;;;;;;;;21.30;99.90;;;;;;4918746;29;19938;-79
2022/10/25 09:14:30;;;;;;;;;;;21.50;99.90;;;;;;4938968;29;19910;-78
2022/10/25 09:17:03;;;;;;;;;;;22.10;99.90;;;;;;4939208;29;19914;-76
2022/10/25 09:19:28;;;;;;;;;;;23.10;99.90;;;;;;4938989;29;19953;-76
2022/10/25 09:22:07;;;;;;;;;;;23.50;99.90;;;;;;4938712;29;20293;-76
2022/10/25 09:24:40;;;;;;;;;;;23.10;98.70;;;;;;4938506;29;20408;-75
2022/10/25 09:27:11;;;;;;;;;;;22.50;99.90;;;;;;4938946;29;19911;-76
2022/10/25 09:29:39;;;;;;;;;;;22.30;99.90;;;;;;4938783;29;20297;-77
2022/10/25 09:32:10;;;;;;;;;;;22.40;99.90;;;;;;4938479;29;20361;-76
2022/10/25 09:34:36;;;;;;;;;;;23.00;99.20;;;;;;4938619;29;20316;-76
2022/10/25 09:37:19;;;;;;;;;;;22.90;99.90;;;;;;4938464;29;19918;-77
2022/10/25 09:39:55;;;;;;;;;;;23.30;99.10;;;;;;4938578;29;19907;-74
2022/10/25 09:42:38;;;;;;;;;;;23.40;98.60;;;;;;4938381;29;19906;-76
2022/10/25 09:45:06;;;;;;;;;;;22.10;99.90;;;;;;4938330;29;19906;-77
2022/10/25 09:47:39;;;;;;;;;;;21.50;99.90;;;;;;4938211;29;19911;-75
2022/10/25 09:50:25;;;;;;;;;;;21.10;99.90;;;;;;4938250;29;19961;-76
2022/10/25 09:52:51;;;;;;;;;;;20.60;99.90;;;;;;4938135;29;20365;-79
2022/10/25 09:55:16;;;;;;;;;;;20.50;99.90;;;;;;4938354;29;19914;-79
2022/10/25 09:57:42;;;;;;;;;;;21.10;99.90;;;;;;4938472;29;19907;-79
2022/10/25 10:00:11;;;;;;;;;;;21.60;99.90;;;;;;4938181;29;19914;-78
2022/10/25 10:02:38;;;;;;;;;;;22.00;99.90;;;;;;4936839;29;19907;-78
2022/10/25 10:05:03;;;;;;;;;;;22.80;99.90;;;;;;4938034;29;19913;-78
2022/10/25 10:07:32;;;;;;;;;;;23.80;99.40;;;;;;4937944;29;19906;-79
2022/10/25 10:10:00;;;;;;;;;;;24.30;98.40;;;;;;4937951;29;20281;-80
2022/10/25 10:12:29;;;;;;;;;;;24.10;97.30;;;;;;4938066;29;20005;-78
2022/10/25 10:15:00;;;;;;;;;;;23.60;97.90;;;;;;4937730;29;19906;-78
2022/10/25 10:17:27;;;;;;;;;;;24.70;98.10;;;;;;4937781;29;19946;-77
2022/10/25 10:20:10;;;;;;;;;;;25.90;94.20;;;;;;4937697;29;19906;-77
2022/10/25 10:22:37;;;;;;;;;;;26.10;92.60;;;;;;4937770;29;20342;-78
2022/10/25 10:25:03;;;;;;;;;;;26.40;91.90;;;;;;4937351;29;20377;-77
2022/10/25 10:27:30;;;;;;;;;;;25.40;91.40;;;;;;4937509;29;19907;-77
2022/10/25 10:29:58;;;;;;;;;;;24.90;93.90;;;;;;4937481;29;19913;-76
2022/10/25 10:32:30;;;;;;;;;;;24.40;94.60;;;;;;4937366;29;19910;-76
2022/10/25 10:34:56;;;;;;;;;;;23.80;94.70;;;;;;4937348;29;20009;-76
2022/10/25 10:37:23;;;;;;;;;;;24.00;94.50;;;;;;4937427;29;20005;-77
2022/10/25 10:39:52;;;;;;;;;;;24.20;94.10;;;;;;4937264;29;19913;-78
2022/10/25 10:42:19;;;;;;;;;;;24.80;93.80;;;;;;4937258;29;20005;-78
2022/10/25 10:44:59;;;;;;;;;;;25.90;92.40;;;;;;4935985;29;19942;-77
2022/10/25 10:47:26;;;;;;;;;;;25.90;91.30;;;;;;4937237;29;20384;-76
2022/10/25 10:49:51;;;;;;;;;;;25.50;89.50;;;;;;4937161;29;19975;-79
2022/10/25 10:52:26;;;;;;;;;;;25.00;90.40;;;;;;4936986;29;19911;-77
2022/10/25 10:54:52;;;;;;;;;;;25.20;90.30;;;;;;4937289;29;19910;-78
2022/10/25 10:57:26;;;;;;;;;;;24.80;90.20;;;;;;4937628;29;20054;-77
2022/10/25 10:59:53;;;;;;;;;;;23.80;91.70;;;;;;4933300;29;19910;-78
2022/10/25 11:02:28;;;;;;;;;;;23.50;93.50;;;;;;4928639;29;20304;-78
2022/10/25 11:04:54;;;;;;;;;;;22.90;94.70;;;;;;4934492;29;19941;-78
2022/10/25 11:07:38;;;;;;;;;;;22.80;95.50;;;;;;4936464;29;19906;-78
2022/10/25 11:10:30;;;;;;;;;;;22.80;96.00;;;;;;4930490;29;19907;-79
2022/10/25 11:13:08;;;;;;;;;;;23.30;95.20;;;;;;4931642;29;19918;-77
2022/10/25 11:15:46;;;;;;;;;;;24.00;93.80;;;;;;4934356;29;19913;-78
2022/10/25 11:18:11;;;;;;;;;;;24.40;92.80;;;;;;4934026;29;19946;-77
2022/10/25 11:20:52;;;;;;;;;;;24.50;92.10;;;;;;4936021;29;19906;-80
2022/10/25 11:23:23;;;;;;;;;;;23.90;93.00;;;;;;4934602;29;20349;-78
2022/10/25 11:28:41;;;;;;;;;;;24.90;91.60;;;;;;4926737;29;20409;-78
2022/10/25 11:31:06;;;;;;;;;;;24.50;92.00;;;;;;4927697;29;19907;-77
2022/10/25 11:33:35;;;;;;;;;;;24.70;92.10;;;;;;4922258;29;20010;-77
2022/10/25 11:36:12;;;;;;;;;;;25.00;92.60;;;;;;4917134;29;19939;-78
2022/10/25 11:38:57;;;;;;;;;;;25.30;91.20;;;;;;4917458;29;19907;-77
2022/10/25 11:41:22;;;;;;;;;;;24.50;91.70;;;;;;4917348;29;20437;-75
2022/10/25 11:43:48;;;;;;;;;;;24.10;93.00;;;;;;4917323;29;19994;-77
2022/10/25 11:46:21;;;;;;;;;;;23.80;93.10;;;;;;4917536;29;19934;-76
2022/10/25 11:48:46;;;;;;;;;;;23.60;94.40;;;;;;4917479;29;19998;-77
2022/10/25 11:51:30;;;;;;;;;;;23.50;94.40;;;;;;4917331;29;20339;-77
2022/10/25 11:54:08;;;;;;;;;;;23.70;94.50;;;;;;4917592;29;19997;-76
2022/10/25 11:56:50;;;;;;;;;;;23.30;94.00;;;;;;4917158;29;19959;-78
2022/10/25 11:59:23;;;;;;;;;;;23.10;96.00;;;;;;4917108;29;19955;-77
2022/10/25 12:02:07;;;;;;;;;;;23.20;94.70;;;;;;4917147;29;19975;-76
2022/10/25 12:04:39;;;;;;;;;;;23.30;96.40;;;;;;4917110;29;19908;-75
2022/10/25 12:07:11;;;;;;;;;;;23.00;96.40;;;;;;4917219;29;19907;-77
2022/10/25 12:09:43;;;;;;;;;;;23.00;96.50;;;;;;4917027;29;19907;-77
2022/10/25 12:12:15;;;;;;;;;;;23.20;95.60;;;;;;4916957;29;19915;-76
2022/10/25 12:14:43;;;;;;;;;;;22.80;95.50;;;;;;4916886;29;19907;-77
2022/10/25 12:17:21;;;;;;;;;;;23.00;94.30;;;;;;4917383;29;19959;-78
2022/10/25 12:19:48;;;;;;;;;;;23.40;93.30;;;;;;4917345;29;19998;-77
2022/10/25 12:22:17;;;;;;;;;;;23.50;92.50;;;;;;4919453;29;19911;-77
2022/10/25 12:24:46;;;;;;;;;;;23.50;92.50;;;;;;4933386;29;19926;-76
2022/10/25 12:27:15;;;;;;;;;;;23.50;91.30;;;;;;4939727;29;19917;-78
2022/10/25 12:29:42;;;;;;;;;;;23.80;91.30;;;;;;4939633;29;19907;-77
2022/10/25 12:32:17;;;;;;;;;;;24.00;91.20;;;;;;4939516;29;19917;-78
2022/10/25 12:34:46;;;;;;;;;;;24.10;90.10;;;;;;4939553;29;19962;-77
2022/10/25 12:37:25;;;;;;;;;;;24.60;90.40;;;;;;4939526;29;20297;-77
2022/10/25 12:39:51;;;;;;;;;;;24.60;87.70;;;;;;4939556;29;19906;-78
2022/10/25 12:42:16;;;;;;;;;;;23.80;86.00;;;;;;4939257;29;19958;-77
2022/10/25 12:45:01;;;;;;;;;;;23.70;88.60;;;;;;4939436;29;19914;-77
2022/10/25 12:47:50;;;;;;;;;;;23.60;90.00;;;;;;4939589;29;20058;-78
2022/10/25 12:50:22;;;;;;;;;;;23.50;90.00;;;;;;4928800;29;19907;-77
2022/10/25 12:53:04;;;;;;;;;;;23.80;89.70;;;;;;4939653;29;19910;-78
2022/10/25 12:55:42;;;;;;;;;;;23.20;90.30;;;;;;4939359;29;19907;-77
2022/10/25 12:58:19;;;;;;;;;;;23.60;91.60;;;;;;4939782;29;19997;-77
2022/10/25 13:00:45;;;;;;;;;;;23.40;92.20;;;;;;4939608;29;20321;-76
2022/10/25 13:03:25;;;;;;;;;;;23.40;91.30;;;;;;4939151;29;19958;-76
2022/10/25 13:05:54;;;;;;;;;;;23.20;91.30;;;;;;4939173;29;19954;-76
2022/10/25 13:08:21;;;;;;;;;;;22.70;91.70;;;;;;4938971;29;20009;-77
2022/10/25 13:10:48;;;;;;;;;;;22.30;93.00;;;;;;4938957;29;19907;-78
2022/10/25 13:13:25;;;;;;;;;;;22.00;93.60;;;;;;4938935;29;19934;-79
2022/10/25 13:15:55;;;;;;;;;;;21.60;95.40;;;;;;4938950;29;19907;-79
2022/10/25 13:18:24;;;;;;;;;;;21.20;96.70;;;;;;4939370;29;20277;-80
2022/10/25 13:20:50;;;;;;;;;;;21.00;99.90;;;;;;4938900;29;20373;-80
2022/10/25 13:23:52;;;;;;;;;;;20.80;99.10;;;;;;4921489;29;19910;-78
2022/10/25 13:26:19;;;;;;;;;;;20.70;99.90;;;;;;4861573;29;19935;-78
2022/10/25 13:28:48;;;;;;;;;;;20.80;99.90;;;;;;4924100;29;19907;-79
2022/10/25 13:31:29;;;;;;;;;;;20.70;99.90;;;;;;4938679;29;19906;-79
2022/10/25 13:34:13;;;;;;;;;;;20.80;99.90;;;;;;4937938;29;19911;-79
2022/10/25 13:36:44;;;;;;;;;;;20.80;99.90;;;;;;4938603;29;19907;-79
2022/10/25 13:39:12;;;;;;;;;;;20.80;99.90;;;;;;4938580;29;20349;-79
2022/10/25 13:41:44;;;;;;;;;;;20.50;99.90;;;;;;4938808;29;20353;-79
2022/10/25 13:44:23;;;;;;;;;;;20.70;99.90;;;;;;4938465;29;19906;-80
2022/10/25 13:46:49;;;;;;;;;;;20.60;99.90;;;;;;4938650;29;19907;-79
2022/10/25 13:49:26;;;;;;;;;;;20.50;99.90;;;;;;4938328;29;19914;-79
2022/10/25 13:51:55;;;;;;;;;;;20.40;99.90;;;;;;4938535;29;19907;-78
2022/10/25 13:54:21;;;;;;;;;;;20.50;99.90;;;;;;4938318;29;20373;-78
2022/10/25 13:56:49;;;;;;;;;;;20.50;99.90;;;;;;4938280;29;19972;-79
2022/10/25 13:59:34;;;;;;;;;;;20.30;99.90;;;;;;4938793;29;20040;-80
2022/10/25 14:02:07;;;;;;;;;;;20.20;99.90;;;;;;4938091;29;20046;-79
2022/10/25 14:04:34;;;;;;;;;;;20.20;99.90;;;;;;4939366;29;20421;-79
2022/10/25 14:07:18;;;;;;;;;;;20.20;99.90;;;;;;4921560;29;19906;-79
2022/10/25 14:09:44;;;;;;;;;;;20.30;99.90;;;;;;4937920;29;20373;-80
2022/10/25 14:12:15;;;;;;;;;;;20.10;99.90;;;;;;4937831;29;20006;-79
2022/10/25 14:14:46;;;;;;;;;;;20.20;99.90;;;;;;4937785;29;19907;-78
2022/10/25 14:17:12;;;;;;;;;;;20.10;99.90;;;;;;4937726;29;19910;-79
2022/10/25 14:19:43;;;;;;;;;;;20.20;99.90;;;;;;4937933;29;20281;-78
2022/10/25 14:22:16;;;;;;;;;;;20.50;99.90;;;;;;4937703;29;19910;-80
2022/10/25 14:24:42;;;;;;;;;;;20.70;99.90;;;;;;4937529;29;20054;-78
2022/10/25 14:27:25;;;;;;;;;;;21.00;99.90;;;;;;4937554;29;19907;-80
2022/10/25 14:29:50;;;;;;;;;;;21.30;99.90;;;;;;4937758;29;19911;-78